createdAt,value
2019-02-09T00:00:32.080Z,1002.73
2019-02-09T00:01:31.064Z,1002.78
2019-02-09T00:02:31.055Z,1002.78
2019-02-09T00:03:31.042Z,1002.76
2019-02-09T00:04:31.028Z,1002.74
2019-02-09T00:05:31.030Z,1002.75
2019-02-09T00:06:31.009Z,1002.67
2019-02-09T00:07:30.999Z,1002.68
2019-02-09T00:08:30.988Z,1002.59
2019-02-09T00:09:30.979Z,1002.64
2019-02-09T00:10:30.973Z,1002.56
2019-02-09T00:11:30.954Z,1002.51
2019-02-09T00:12:30.947Z,1002.49
2019-02-09T00:13:30.951Z,1002.45
2019-02-09T00:14:30.928Z,1002.47
2019-02-09T00:15:30.935Z,1002.42
2019-02-09T00:16:30.901Z,1002.41
2019-02-09T00:17:30.892Z,1002.42
2019-02-09T00:18:30.884Z,1002.39
2019-02-09T00:19:30.875Z,1002.33
2019-02-09T00:20:30.874Z,1002.29
2019-02-09T00:21:30.856Z,1002.26
2019-02-09T00:22:30.840Z,1002.31
2019-02-09T00:23:30.882Z,1002.28
2019-02-09T00:24:30.817Z,1002.24
2019-02-09T00:25:30.816Z,1002.31
2019-02-09T00:26:30.796Z,1002.25
2019-02-09T00:27:30.799Z,1002.26
2019-02-09T00:28:30.777Z,1002.19
2019-02-09T00:29:30.766Z,1002.15
2019-02-09T00:30:30.769Z,1002.18
2019-02-09T00:31:30.747Z,1002.11
2019-02-09T00:32:30.735Z,1002.12
2019-02-09T00:33:30.731Z,1002.20
2019-02-09T00:34:30.712Z,1002.16
2019-02-09T00:35:30.713Z,1002.21
2019-02-09T00:36:30.691Z,1002.15
2019-02-09T00:37:30.687Z,1002.15
2019-02-09T00:38:30.673Z,1002.16
2019-02-09T00:39:30.663Z,1002.19
2019-02-09T00:40:30.660Z,1002.12
2019-02-09T00:41:30.639Z,1002.11
2019-02-09T00:42:30.628Z,1002.16
2019-02-09T00:43:30.620Z,1002.15
2019-02-09T00:44:30.607Z,1002.17
2019-02-09T00:45:30.611Z,1002.11
2019-02-09T00:46:30.584Z,1002.11
2019-02-09T00:47:30.573Z,1002.04
2019-02-09T00:48:30.583Z,1002.07
2019-02-09T00:49:30.561Z,1002.04
2019-02-09T00:50:30.557Z,1002.00
2019-02-09T00:51:30.538Z,1001.99
2019-02-09T00:52:30.565Z,1002.01
2019-02-09T00:53:30.509Z,1001.91
2019-02-09T00:54:30.532Z,1001.92
2019-02-09T00:55:31.247Z,1001.92
2019-02-09T00:56:30.490Z,1001.89
2019-02-09T00:57:30.491Z,1001.83
2019-02-09T00:58:30.457Z,1001.89
2019-02-09T00:59:30.452Z,1001.82
2019-02-09T01:00:31.625Z,1001.79
2019-02-09T01:01:30.443Z,1001.84
2019-02-09T01:02:30.419Z,1001.72
2019-02-09T01:03:30.404Z,1001.83
2019-02-09T01:04:30.394Z,1001.78
2019-02-09T01:05:30.397Z,1001.78
2019-02-09T01:06:30.399Z,1001.77
2019-02-09T01:07:30.366Z,1001.78
2019-02-09T01:08:30.363Z,1001.75
2019-02-09T01:09:30.341Z,1001.71
2019-02-09T01:10:30.369Z,1001.68
2019-02-09T01:11:30.323Z,1001.72
2019-02-09T01:12:30.313Z,1001.63
2019-02-09T01:13:30.302Z,1001.62
2019-02-09T01:14:30.289Z,1001.65
2019-02-09T01:15:30.285Z,1001.60
2019-02-09T01:16:30.291Z,1001.62
2019-02-09T01:17:30.258Z,1001.62
2019-02-09T01:18:30.250Z,1001.57
2019-02-09T01:19:30.239Z,1001.54
2019-02-09T01:20:30.229Z,1001.58
2019-02-09T01:21:30.226Z,1001.66
2019-02-09T01:22:30.204Z,1001.59
2019-02-09T01:23:30.194Z,1001.51
2019-02-09T01:24:30.187Z,1001.50
2019-02-09T01:25:30.173Z,1001.49
2019-02-09T01:26:30.179Z,1001.53
2019-02-09T01:27:30.171Z,1001.47
2019-02-09T01:28:30.144Z,1001.39
2019-02-09T01:29:30.133Z,1001.38
2019-02-09T01:30:30.121Z,1001.33
2019-02-09T01:31:30.125Z,1001.35
2019-02-09T01:32:30.098Z,1001.28
2019-02-09T01:33:30.088Z,1001.27
2019-02-09T01:34:30.087Z,1001.22
2019-02-09T01:35:30.072Z,1001.20
2019-02-09T01:36:30.071Z,1001.22
2019-02-09T01:37:30.047Z,1001.14
2019-02-09T01:38:30.035Z,1001.09
2019-02-09T01:39:30.024Z,1000.98
2019-02-09T01:40:30.013Z,1000.99
2019-02-09T01:41:30.017Z,1001.03
2019-02-09T01:42:29.994Z,1001.02
2019-02-09T01:43:29.985Z,1000.95
2019-02-09T01:44:29.971Z,1000.97
2019-02-09T01:45:29.961Z,1000.97
2019-02-09T01:46:29.962Z,1000.94
2019-02-09T01:47:29.943Z,1000.96
2019-02-09T01:48:29.933Z,1000.92
2019-02-09T01:49:29.919Z,1000.88
2019-02-09T01:50:29.912Z,1000.79
2019-02-09T01:51:29.910Z,1000.79
2019-02-09T01:52:29.896Z,1000.82
2019-02-09T01:53:29.876Z,1000.78
2019-02-09T01:54:29.871Z,1000.68
2019-02-09T01:55:29.858Z,1000.76
2019-02-09T01:56:29.862Z,1000.75
2019-02-09T01:57:29.839Z,1000.74
2019-02-09T01:58:29.831Z,1000.74
2019-02-09T01:59:29.816Z,1000.73
2019-02-09T02:00:29.804Z,1000.61
2019-02-09T02:01:29.803Z,1000.69
2019-02-09T02:02:29.783Z,1000.64
2019-02-09T02:03:29.774Z,1000.58
2019-02-09T02:04:29.764Z,1000.61
2019-02-09T02:05:29.750Z,1000.57
2019-02-09T02:06:29.766Z,1000.52
2019-02-09T02:07:29.729Z,1000.51
2019-02-09T02:08:29.720Z,1000.55
2019-02-09T02:09:29.708Z,1000.46
2019-02-09T02:10:29.707Z,1000.53
2019-02-09T02:11:29.707Z,1000.44
2019-02-09T02:12:29.676Z,1000.39
2019-02-09T02:13:29.666Z,1000.35
2019-02-09T02:14:29.659Z,1000.32
2019-02-09T02:15:29.646Z,1000.27
2019-02-09T02:16:29.649Z,1000.28
2019-02-09T02:17:29.625Z,1000.24
2019-02-09T02:18:29.615Z,1000.22
2019-02-09T02:19:29.606Z,1000.21
2019-02-09T02:20:29.591Z,1000.20
2019-02-09T02:21:29.592Z,1000.15
2019-02-09T02:22:29.571Z,1000.16
2019-02-09T02:23:29.564Z,1000.22
2019-02-09T02:24:29.551Z,1000.22
2019-02-09T02:25:29.542Z,1000.18
2019-02-09T02:26:29.542Z,1000.17
2019-02-09T02:27:29.522Z,1000.17
2019-02-09T02:28:29.507Z,1000.11
2019-02-09T02:29:29.501Z,1000.11
2019-02-09T02:30:29.491Z,1000.08
2019-02-09T02:31:29.489Z,1000.02
2019-02-09T02:32:29.468Z,1000.02
2019-02-09T02:33:29.453Z,999.98
2019-02-09T02:34:29.454Z,999.97
2019-02-09T02:35:29.437Z,999.95
2019-02-09T02:36:29.435Z,999.89
2019-02-09T02:37:29.414Z,999.89
2019-02-09T02:38:29.405Z,999.89
2019-02-09T02:39:29.393Z,999.85
2019-02-09T02:40:29.416Z,999.92
2019-02-09T02:41:29.392Z,999.83
2019-02-09T02:42:29.362Z,999.77
2019-02-09T02:43:29.350Z,999.79
2019-02-09T02:44:29.343Z,999.81
2019-02-09T02:45:29.331Z,999.78
2019-02-09T02:46:29.338Z,999.74
2019-02-09T02:47:29.309Z,999.77
2019-02-09T02:48:29.302Z,999.78
2019-02-09T02:49:29.284Z,999.65
2019-02-09T02:50:29.278Z,999.66
2019-02-09T02:51:29.281Z,999.65
2019-02-09T02:52:29.258Z,999.62
2019-02-09T02:53:29.245Z,999.58
2019-02-09T02:54:29.235Z,999.58
2019-02-09T02:55:29.222Z,999.53
2019-02-09T02:56:29.234Z,999.54
2019-02-09T02:57:29.215Z,999.53
2019-02-09T02:58:29.192Z,999.52
2019-02-09T02:59:29.180Z,999.47
2019-02-09T03:00:32.454Z,999.45
2019-02-09T03:01:29.168Z,999.47
2019-02-09T03:02:29.149Z,999.38
2019-02-09T03:03:29.139Z,999.35
2019-02-09T03:04:29.129Z,999.40
2019-02-09T03:05:29.136Z,999.37
2019-02-09T03:06:29.127Z,999.34
2019-02-09T03:07:29.095Z,999.31
2019-02-09T03:08:29.088Z,999.30
2019-02-09T03:09:29.079Z,999.30
2019-02-09T03:10:29.067Z,999.30
2019-02-09T03:11:29.070Z,999.30
2019-02-09T03:12:29.042Z,999.22
2019-02-09T03:13:29.036Z,999.22
2019-02-09T03:14:29.022Z,999.13
2019-02-09T03:15:29.016Z,999.09
2019-02-09T03:16:29.010Z,999.13
2019-02-09T03:17:29.000Z,999.02
2019-02-09T03:18:28.983Z,999.05
2019-02-09T03:19:28.969Z,999.00
2019-02-09T03:20:28.966Z,998.89
2019-02-09T03:21:28.966Z,998.87
2019-02-09T03:22:28.940Z,998.91
2019-02-09T03:23:28.931Z,998.72
2019-02-09T03:24:28.916Z,998.76
2019-02-09T03:25:28.911Z,998.72
2019-02-09T03:26:28.906Z,998.72
2019-02-09T03:27:28.887Z,998.72
2019-02-09T03:28:28.872Z,998.80
2019-02-09T03:29:28.871Z,998.72
2019-02-09T03:30:28.875Z,998.74
2019-02-09T03:31:28.854Z,998.77
2019-02-09T03:32:28.832Z,998.67
2019-02-09T03:33:28.820Z,998.68
2019-02-09T03:34:28.818Z,998.69
2019-02-09T03:35:28.802Z,998.71
2019-02-09T03:36:28.798Z,998.69
2019-02-09T03:37:28.778Z,998.65
2019-02-09T03:38:28.767Z,998.65
2019-02-09T03:39:28.756Z,998.58
2019-02-09T03:40:28.777Z,998.58
2019-02-09T03:41:28.749Z,998.52
2019-02-09T03:42:28.725Z,998.56
2019-02-09T03:43:28.714Z,998.57
2019-02-09T03:44:28.707Z,998.58
2019-02-09T03:45:28.697Z,998.50
2019-02-09T03:46:28.683Z,998.50
2019-02-09T03:47:28.683Z,998.54
2019-02-09T03:48:28.669Z,998.55
2019-02-09T03:49:28.651Z,998.49
2019-02-09T03:50:28.654Z,998.52
2019-02-09T03:51:28.628Z,998.55
2019-02-09T03:52:28.631Z,998.53
2019-02-09T03:53:28.611Z,998.49
2019-02-09T03:54:28.598Z,998.54
2019-02-09T03:55:28.589Z,998.45
2019-02-09T03:56:29.525Z,998.49
2019-02-09T03:57:28.582Z,998.48
2019-02-09T03:58:28.558Z,998.43
2019-02-09T03:59:28.549Z,998.36
2019-02-09T04:00:28.540Z,998.38
2019-02-09T04:01:28.524Z,998.41
2019-02-09T04:02:28.526Z,998.40
2019-02-09T04:03:28.507Z,998.47
2019-02-09T04:04:28.494Z,998.30
2019-02-09T04:05:28.482Z,998.21
2019-02-09T04:06:28.468Z,998.29
2019-02-09T04:07:28.478Z,998.28
2019-02-09T04:08:28.450Z,998.30
2019-02-09T04:09:28.443Z,998.27
2019-02-09T04:10:28.428Z,998.31
2019-02-09T04:11:28.421Z,998.28
2019-02-09T04:12:28.420Z,998.22
2019-02-09T04:13:28.395Z,998.32
2019-02-09T04:14:28.386Z,998.29
2019-02-09T04:15:28.374Z,998.31
2019-02-09T04:16:28.365Z,998.27
2019-02-09T04:17:28.364Z,998.26
2019-02-09T04:18:28.341Z,998.26
2019-02-09T04:19:28.333Z,998.19
2019-02-09T04:20:28.326Z,998.22
2019-02-09T04:21:28.312Z,998.24
2019-02-09T04:22:28.317Z,998.20
2019-02-09T04:23:28.288Z,998.11
2019-02-09T04:24:28.275Z,998.27
2019-02-09T04:25:28.270Z,998.16
2019-02-09T04:26:28.256Z,998.10
2019-02-09T04:27:28.260Z,998.17
2019-02-09T04:28:28.233Z,998.11
2019-02-09T04:29:28.221Z,998.15
2019-02-09T04:30:28.209Z,998.07
2019-02-09T04:31:28.201Z,998.01
2019-02-09T04:32:28.202Z,997.94
2019-02-09T04:33:28.177Z,998.03
2019-02-09T04:34:28.170Z,998.11
2019-02-09T04:35:28.157Z,998.10
2019-02-09T04:36:28.146Z,998.00
2019-02-09T04:37:28.148Z,998.00
2019-02-09T04:38:28.137Z,997.97
2019-02-09T04:39:28.133Z,997.95
2019-02-09T04:40:28.103Z,998.04
2019-02-09T04:41:28.098Z,998.04
2019-02-09T04:42:28.094Z,998.04
2019-02-09T04:43:28.075Z,997.97
2019-02-09T04:44:28.061Z,997.98
2019-02-09T04:45:28.050Z,997.95
2019-02-09T04:46:28.037Z,997.94
2019-02-09T04:47:28.039Z,997.96
2019-02-09T04:48:28.019Z,997.92
2019-02-09T04:49:28.030Z,997.93
2019-02-09T04:50:27.996Z,997.87
2019-02-09T04:51:27.987Z,997.91
2019-02-09T04:52:27.987Z,997.85
2019-02-09T04:53:27.968Z,997.83
2019-02-09T04:54:27.959Z,997.75
2019-02-09T04:55:27.942Z,997.78
2019-02-09T04:56:27.931Z,997.70
2019-02-09T04:57:27.935Z,997.76
2019-02-09T04:58:27.910Z,997.76
2019-02-09T04:59:27.901Z,997.72
2019-02-09T05:00:27.925Z,997.73
2019-02-09T05:01:27.880Z,997.70
2019-02-09T05:02:27.878Z,997.69
2019-02-09T05:03:27.855Z,997.71
2019-02-09T05:04:27.850Z,997.57
2019-02-09T05:05:27.837Z,997.68
2019-02-09T05:06:27.833Z,997.73
2019-02-09T05:07:27.823Z,997.69
2019-02-09T05:08:27.800Z,997.74
2019-02-09T05:09:27.791Z,997.77
2019-02-09T05:10:27.804Z,997.73
2019-02-09T05:11:27.768Z,997.74
2019-02-09T05:12:27.800Z,997.66
2019-02-09T05:13:27.751Z,997.70
2019-02-09T05:14:27.736Z,997.65
2019-02-09T05:15:27.728Z,997.61
2019-02-09T05:16:27.715Z,997.67
2019-02-09T05:17:27.718Z,997.63
2019-02-09T05:18:27.715Z,997.69
2019-02-09T05:19:27.690Z,997.68
2019-02-09T05:20:27.677Z,997.70
2019-02-09T05:21:27.684Z,997.67
2019-02-09T05:22:27.664Z,997.69
2019-02-09T05:23:27.638Z,997.61
2019-02-09T05:24:27.632Z,997.68
2019-02-09T05:25:27.621Z,997.66
2019-02-09T05:26:27.612Z,997.79
2019-02-09T05:27:27.621Z,997.69
2019-02-09T05:28:27.594Z,997.75
2019-02-09T05:29:27.575Z,997.80
2019-02-09T05:30:27.567Z,997.74
2019-02-09T05:31:27.552Z,997.82
2019-02-09T05:32:27.560Z,997.77
2019-02-09T05:33:27.530Z,997.71
2019-02-09T05:34:27.519Z,997.67
2019-02-09T05:35:27.521Z,997.76
2019-02-09T05:36:27.529Z,997.69
2019-02-09T05:37:28.244Z,997.69
2019-02-09T05:38:27.478Z,997.65
2019-02-09T05:39:27.468Z,997.72
2019-02-09T05:40:27.455Z,997.69
2019-02-09T05:41:27.449Z,997.72
2019-02-09T05:42:27.452Z,997.67
2019-02-09T05:43:27.423Z,997.61
2019-02-09T05:44:27.409Z,997.57
2019-02-09T05:45:27.403Z,997.61
2019-02-09T05:46:27.423Z,997.61
2019-02-09T05:47:27.396Z,997.65
2019-02-09T05:48:27.377Z,997.66
2019-02-09T05:49:27.356Z,997.66
2019-02-09T05:50:27.348Z,997.63
2019-02-09T05:51:27.338Z,997.63
2019-02-09T05:52:27.356Z,997.68
2019-02-09T05:53:27.316Z,997.65
2019-02-09T05:54:27.313Z,997.64
2019-02-09T05:55:27.305Z,997.65
2019-02-09T05:56:27.296Z,997.66
2019-02-09T05:57:27.274Z,997.66
2019-02-09T05:58:27.270Z,997.69
2019-02-09T05:59:27.255Z,997.70
2019-02-09T06:00:27.256Z,997.74
2019-02-09T06:01:32.076Z,997.73
2019-02-09T06:02:28.220Z,997.67
2019-02-09T06:03:27.288Z,997.68
2019-02-09T06:04:27.200Z,997.62
2019-02-09T06:05:27.195Z,997.61
2019-02-09T06:06:27.203Z,997.57
2019-02-09T06:07:27.193Z,997.60
2019-02-09T06:08:27.307Z,997.62
2019-02-09T06:09:27.166Z,997.62
2019-02-09T06:10:27.144Z,997.69
2019-02-09T06:11:27.141Z,997.61
2019-02-09T06:12:27.202Z,997.64
2019-02-09T06:13:27.110Z,997.63
2019-02-09T06:14:27.088Z,997.62
2019-02-09T06:15:27.076Z,997.60
2019-02-09T06:16:27.064Z,997.66
2019-02-09T06:17:27.054Z,997.60
2019-02-09T06:18:27.056Z,997.66
2019-02-09T06:19:27.032Z,997.69
2019-02-09T06:20:27.022Z,997.69
2019-02-09T06:21:27.015Z,997.71
2019-02-09T06:22:27.008Z,997.69
2019-02-09T06:23:26.999Z,997.72
2019-02-09T06:24:26.978Z,997.71
2019-02-09T06:25:27.066Z,997.66
2019-02-09T06:26:26.956Z,997.67
2019-02-09T06:27:26.947Z,997.71
2019-02-09T06:28:26.950Z,997.71
2019-02-09T06:29:26.924Z,997.64
2019-02-09T06:30:26.912Z,997.66
2019-02-09T06:31:26.900Z,997.60
2019-02-09T06:32:26.892Z,997.71
2019-02-09T06:33:26.895Z,997.64
2019-02-09T06:34:26.868Z,997.66
2019-02-09T06:35:26.875Z,997.69
2019-02-09T06:36:26.847Z,997.66
2019-02-09T06:37:26.837Z,997.60
2019-02-09T06:38:26.838Z,997.61
2019-02-09T06:39:26.823Z,997.62
2019-02-09T06:40:26.806Z,997.63
2019-02-09T06:41:26.806Z,997.66
2019-02-09T06:42:26.780Z,997.69
2019-02-09T06:43:26.782Z,997.71
2019-02-09T06:44:26.761Z,997.74
2019-02-09T06:45:26.748Z,997.74
2019-02-09T06:46:26.737Z,997.80
2019-02-09T06:47:26.784Z,997.78
2019-02-09T06:48:26.731Z,997.75
2019-02-09T06:49:26.706Z,997.73
2019-02-09T06:50:26.695Z,997.76
2019-02-09T06:51:26.684Z,997.76
2019-02-09T06:52:26.677Z,997.78
2019-02-09T06:53:26.674Z,997.85
2019-02-09T06:54:26.672Z,997.84
2019-02-09T06:55:26.644Z,997.84
2019-02-09T06:56:26.631Z,997.89
2019-02-09T06:57:26.620Z,997.93
2019-02-09T06:58:26.619Z,997.89
2019-02-09T06:59:26.605Z,997.94
2019-02-09T07:00:26.590Z,997.90
2019-02-09T07:01:26.577Z,997.84
2019-02-09T07:02:26.563Z,997.86
2019-02-09T07:03:26.555Z,997.88
2019-02-09T07:04:26.566Z,997.89
2019-02-09T07:05:26.539Z,997.86
2019-02-09T07:06:26.537Z,997.82
2019-02-09T07:07:26.512Z,997.87
2019-02-09T07:08:27.255Z,997.80
2019-02-09T07:09:26.523Z,997.77
2019-02-09T07:10:26.510Z,997.83
2019-02-09T07:11:26.482Z,997.82
2019-02-09T07:12:26.496Z,997.85
2019-02-09T07:13:26.452Z,997.85
2019-02-09T07:14:26.446Z,997.83
2019-02-09T07:15:26.427Z,997.85
2019-02-09T07:16:26.415Z,997.84
2019-02-09T07:17:26.423Z,997.85
2019-02-09T07:18:26.397Z,997.88
2019-02-09T07:19:26.400Z,997.90
2019-02-09T07:20:26.372Z,997.90
2019-02-09T07:21:26.361Z,997.96
2019-02-09T07:22:26.350Z,997.94
2019-02-09T07:23:26.338Z,998.04
2019-02-09T07:24:26.343Z,998.01
2019-02-09T07:25:26.321Z,998.04
2019-02-09T07:26:26.305Z,998.05
2019-02-09T07:27:26.295Z,998.07
2019-02-09T07:28:26.289Z,998.03
2019-02-09T07:29:26.286Z,998.05
2019-02-09T07:30:26.263Z,998.03
2019-02-09T07:31:26.253Z,998.04
2019-02-09T07:32:26.238Z,998.01
2019-02-09T07:33:26.234Z,998.00
2019-02-09T07:34:26.232Z,998.00
2019-02-09T07:35:26.208Z,998.02
2019-02-09T07:36:26.201Z,998.00
2019-02-09T07:37:26.185Z,997.99
2019-02-09T07:38:26.176Z,997.99
2019-02-09T07:39:26.176Z,997.93
2019-02-09T07:40:26.158Z,997.94
2019-02-09T07:41:26.142Z,997.99
2019-02-09T07:42:26.131Z,997.99
2019-02-09T07:43:26.124Z,997.97
2019-02-09T07:44:26.139Z,997.99
2019-02-09T07:45:26.099Z,998.05
2019-02-09T07:46:26.097Z,998.02
2019-02-09T07:47:26.079Z,998.04
2019-02-09T07:48:26.066Z,998.06
2019-02-09T07:49:26.100Z,998.03
2019-02-09T07:50:26.057Z,998.03
2019-02-09T07:51:26.035Z,998.01
2019-02-09T07:52:26.027Z,998.02
2019-02-09T07:53:26.068Z,998.06
2019-02-09T07:54:26.015Z,998.02
2019-02-09T07:55:25.992Z,998.07
2019-02-09T07:56:25.985Z,998.09
2019-02-09T07:57:25.971Z,998.08
2019-02-09T07:58:26.201Z,998.03
2019-02-09T07:59:25.964Z,998.09
2019-02-09T08:00:25.938Z,998.10
2019-02-09T08:01:25.929Z,998.11
2019-02-09T08:02:25.918Z,998.09
2019-02-09T08:03:25.958Z,998.09
2019-02-09T08:04:25.908Z,998.09
2019-02-09T08:05:25.883Z,998.07
2019-02-09T08:06:25.875Z,998.10
2019-02-09T08:07:25.862Z,998.12
2019-02-09T08:08:25.853Z,998.15
2019-02-09T08:09:25.852Z,998.14
2019-02-09T08:10:25.830Z,998.16
2019-02-09T08:11:25.820Z,998.14
2019-02-09T08:12:25.809Z,998.22
2019-02-09T08:13:25.808Z,998.24
2019-02-09T08:14:25.805Z,998.21
2019-02-09T08:15:25.780Z,998.19
2019-02-09T08:16:25.766Z,998.25
2019-02-09T08:17:25.758Z,998.19
2019-02-09T08:18:25.745Z,998.25
2019-02-09T08:19:25.748Z,998.22
2019-02-09T08:20:25.724Z,998.18
2019-02-09T08:21:25.713Z,998.14
2019-02-09T08:22:25.700Z,998.12
2019-02-09T08:23:25.691Z,998.08
2019-02-09T08:24:25.697Z,998.15
2019-02-09T08:25:25.673Z,998.11
2019-02-09T08:26:25.659Z,998.17
2019-02-09T08:27:25.649Z,998.18
2019-02-09T08:28:25.639Z,998.22
2019-02-09T08:29:25.636Z,998.28
2019-02-09T08:30:25.618Z,998.19
2019-02-09T08:31:25.615Z,998.18
2019-02-09T08:32:25.600Z,998.21
2019-02-09T08:33:25.591Z,998.17
2019-02-09T08:34:25.586Z,998.20
2019-02-09T08:35:25.565Z,998.18
2019-02-09T08:36:25.558Z,998.07
2019-02-09T08:37:25.541Z,998.08
2019-02-09T08:38:25.535Z,998.06
2019-02-09T08:39:25.533Z,998.03
2019-02-09T08:40:25.510Z,998.00
2019-02-09T08:41:25.498Z,998.02
2019-02-09T08:42:25.497Z,998.02
2019-02-09T08:43:25.480Z,998.03
2019-02-09T08:44:25.480Z,997.96
2019-02-09T08:45:25.458Z,997.99
2019-02-09T08:46:25.446Z,997.99
2019-02-09T08:47:25.436Z,998.02
2019-02-09T08:48:25.427Z,998.10
2019-02-09T08:49:25.420Z,998.11
2019-02-09T08:50:25.416Z,998.14
2019-02-09T08:51:25.410Z,998.02
2019-02-09T08:52:25.383Z,998.10
2019-02-09T08:53:25.374Z,998.07
2019-02-09T08:54:25.361Z,998.15
2019-02-09T08:55:25.365Z,998.20
2019-02-09T08:56:25.356Z,998.15
2019-02-09T08:57:25.332Z,998.19
2019-02-09T08:58:25.324Z,998.20
2019-02-09T08:59:25.308Z,998.23
2019-02-09T09:00:25.316Z,998.28
2019-02-09T09:01:25.288Z,998.24
2019-02-09T09:02:25.276Z,998.22
2019-02-09T09:03:25.268Z,998.20
2019-02-09T09:04:25.263Z,998.27
2019-02-09T09:05:25.262Z,998.28
2019-02-09T09:06:25.240Z,998.26
2019-02-09T09:07:25.226Z,998.27
2019-02-09T09:08:25.224Z,998.24
2019-02-09T09:09:25.203Z,998.26
2019-02-09T09:10:25.203Z,998.24
2019-02-09T09:11:25.184Z,998.21
2019-02-09T09:12:25.177Z,998.06
2019-02-09T09:13:25.159Z,998.18
2019-02-09T09:14:25.155Z,998.17
2019-02-09T09:15:25.150Z,998.14
2019-02-09T09:16:25.129Z,998.14
2019-02-09T09:17:25.122Z,998.15
2019-02-09T09:18:25.105Z,998.08
2019-02-09T09:19:25.749Z,998.13
2019-02-09T09:20:25.095Z,998.13
2019-02-09T09:21:25.078Z,998.18
2019-02-09T09:22:25.061Z,998.13
2019-02-09T09:23:25.054Z,998.20
2019-02-09T09:24:25.046Z,998.13
2019-02-09T09:25:25.052Z,998.17
2019-02-09T09:26:25.024Z,998.22
2019-02-09T09:27:25.008Z,998.17
2019-02-09T09:28:24.997Z,998.18
2019-02-09T09:29:24.986Z,998.17
2019-02-09T09:30:24.989Z,998.25
2019-02-09T09:31:24.963Z,998.25
2019-02-09T09:32:28.769Z,998.27
2019-02-09T09:33:24.943Z,998.31
2019-02-09T09:34:24.932Z,998.27
2019-02-09T09:35:24.950Z,998.36
2019-02-09T09:36:24.923Z,998.37
2019-02-09T09:37:24.899Z,998.42
2019-02-09T09:38:24.891Z,998.44
2019-02-09T09:39:24.878Z,998.48
2019-02-09T09:40:24.878Z,998.44
2019-02-09T09:41:24.862Z,998.38
2019-02-09T09:42:24.859Z,998.50
2019-02-09T09:43:24.839Z,998.47
2019-02-09T09:44:24.830Z,998.54
2019-02-09T09:45:24.830Z,998.49
2019-02-09T09:46:24.806Z,998.49
2019-02-09T09:47:24.805Z,998.50
2019-02-09T09:48:24.790Z,998.37
2019-02-09T09:49:24.772Z,998.52
2019-02-09T09:50:24.772Z,998.54
2019-02-09T09:51:24.754Z,998.46
2019-02-09T09:52:24.743Z,998.50
2019-02-09T09:53:24.739Z,998.48
2019-02-09T09:54:24.718Z,998.54
2019-02-09T09:55:24.728Z,998.49
2019-02-09T09:56:24.696Z,998.40
2019-02-09T09:57:24.696Z,998.48
2019-02-09T09:58:24.677Z,998.47
2019-02-09T09:59:24.668Z,998.46
2019-02-09T10:00:24.667Z,998.57
2019-02-09T10:01:24.699Z,998.61
2019-02-09T10:02:24.643Z,998.58
2019-02-09T10:03:24.623Z,998.54
2019-02-09T10:04:24.611Z,998.64
2019-02-09T10:05:24.614Z,998.61
2019-02-09T10:06:24.594Z,998.54
2019-02-09T10:07:24.585Z,998.54
2019-02-09T10:08:24.586Z,998.56
2019-02-09T10:09:24.559Z,998.62
2019-02-09T10:10:24.557Z,998.56
2019-02-09T10:11:24.536Z,998.61
2019-02-09T10:12:24.526Z,998.57
2019-02-09T10:13:24.518Z,998.58
2019-02-09T10:14:24.514Z,998.63
2019-02-09T10:15:24.522Z,998.62
2019-02-09T10:16:24.490Z,998.56
2019-02-09T10:17:24.471Z,998.55
2019-02-09T10:18:24.495Z,998.63
2019-02-09T10:19:24.450Z,998.54
2019-02-09T10:20:24.450Z,998.59
2019-02-09T10:21:25.302Z,998.58
2019-02-09T10:22:24.452Z,998.58
2019-02-09T10:23:24.438Z,998.57
2019-02-09T10:24:24.398Z,998.58
2019-02-09T10:25:24.405Z,998.53
2019-02-09T10:26:24.383Z,998.66
2019-02-09T10:27:24.390Z,998.61
2019-02-09T10:28:24.358Z,998.61
2019-02-09T10:29:24.342Z,998.75
2019-02-09T10:30:24.398Z,998.64
2019-02-09T10:31:24.346Z,998.64
2019-02-09T10:32:24.316Z,998.65
2019-02-09T10:33:24.298Z,998.70
2019-02-09T10:34:24.298Z,998.62
2019-02-09T10:35:24.305Z,998.71
2019-02-09T10:36:24.291Z,998.64
2019-02-09T10:37:24.256Z,998.68
2019-02-09T10:38:24.250Z,998.58
2019-02-09T10:39:24.234Z,998.72
2019-02-09T10:40:24.226Z,998.74
2019-02-09T10:41:24.226Z,998.69
2019-02-09T10:42:24.210Z,998.69
2019-02-09T10:43:24.196Z,998.65
2019-02-09T10:44:24.182Z,998.57
2019-02-09T10:45:24.174Z,998.62
2019-02-09T10:46:24.177Z,998.55
2019-02-09T10:47:24.151Z,998.65
2019-02-09T10:48:24.146Z,998.64
2019-02-09T10:49:24.133Z,998.66
2019-02-09T10:50:24.120Z,998.70
2019-02-09T10:51:24.116Z,998.62
2019-02-09T10:52:24.104Z,998.68
2019-02-09T10:53:24.083Z,998.56
2019-02-09T10:54:24.075Z,998.64
2019-02-09T10:55:24.064Z,998.63
2019-02-09T10:56:24.065Z,998.64
2019-02-09T10:57:24.045Z,998.63
2019-02-09T10:58:24.031Z,998.64
2019-02-09T10:59:24.021Z,998.66
2019-02-09T11:00:24.011Z,998.66
2019-02-09T11:01:24.010Z,998.68
2019-02-09T11:02:24.002Z,998.64
2019-02-09T11:03:23.982Z,998.62
2019-02-09T11:04:23.964Z,998.63
2019-02-09T11:05:23.957Z,998.65
2019-02-09T11:06:23.955Z,998.74
2019-02-09T11:07:23.934Z,998.63
2019-02-09T11:08:23.927Z,998.70
2019-02-09T11:09:23.915Z,998.65
2019-02-09T11:10:23.901Z,998.58
2019-02-09T11:11:23.909Z,998.67
2019-02-09T11:12:23.889Z,998.58
2019-02-09T11:13:23.878Z,998.60
2019-02-09T11:14:23.899Z,998.63
2019-02-09T11:15:23.871Z,998.61
2019-02-09T11:16:23.847Z,998.64
2019-02-09T11:17:23.869Z,998.63
2019-02-09T11:18:23.816Z,998.59
2019-02-09T11:19:23.805Z,998.54
2019-02-09T11:20:23.804Z,998.60
2019-02-09T11:21:23.799Z,998.54
2019-02-09T11:22:23.774Z,998.62
2019-02-09T11:23:23.761Z,998.67
2019-02-09T11:24:23.778Z,998.61
2019-02-09T11:25:23.748Z,998.65
2019-02-09T11:26:23.745Z,998.70
2019-02-09T11:27:23.723Z,998.70
2019-02-09T11:28:23.712Z,998.74
2019-02-09T11:29:23.729Z,998.73
2019-02-09T11:30:23.694Z,998.71
2019-02-09T11:31:23.697Z,998.77
2019-02-09T11:32:23.671Z,998.72
2019-02-09T11:33:23.667Z,998.76
2019-02-09T11:34:23.644Z,998.77
2019-02-09T11:35:23.821Z,998.69
2019-02-09T11:36:23.653Z,998.70
2019-02-09T11:37:23.612Z,998.75
2019-02-09T11:38:23.610Z,998.86
2019-02-09T11:39:23.593Z,998.69
2019-02-09T11:40:23.585Z,998.75
2019-02-09T11:41:23.585Z,998.70
2019-02-09T11:42:23.565Z,998.74
2019-02-09T11:43:23.551Z,998.76
2019-02-09T11:44:23.538Z,998.84
2019-02-09T11:45:23.544Z,998.94
2019-02-09T11:46:23.529Z,998.83
2019-02-09T11:47:23.529Z,998.91
2019-02-09T11:48:23.545Z,998.72
2019-02-09T11:49:23.493Z,998.87
2019-02-09T11:50:23.476Z,998.84
2019-02-09T11:51:23.478Z,998.86
2019-02-09T11:52:23.459Z,998.90
2019-02-09T11:53:23.454Z,998.85
2019-02-09T11:54:23.437Z,998.82
2019-02-09T11:55:23.421Z,998.81
2019-02-09T11:56:23.425Z,998.84
2019-02-09T11:57:23.399Z,998.90
2019-02-09T11:58:23.390Z,998.73
2019-02-09T11:59:23.378Z,998.82
2019-02-09T12:00:23.370Z,998.74
2019-02-09T12:01:23.375Z,998.83
2019-02-09T12:02:23.352Z,998.77
2019-02-09T12:03:23.336Z,998.77
2019-02-09T12:04:23.324Z,998.69
2019-02-09T12:05:23.312Z,998.75
2019-02-09T12:06:23.322Z,998.76
2019-02-09T12:07:24.012Z,998.80
2019-02-09T12:08:23.344Z,998.87
2019-02-09T12:09:23.274Z,998.67
2019-02-09T12:10:23.259Z,998.61
2019-02-09T12:11:23.262Z,998.77
2019-02-09T12:12:23.243Z,998.89
2019-02-09T12:13:23.230Z,998.85
2019-02-09T12:14:23.215Z,998.86
2019-02-09T12:15:23.210Z,998.82
2019-02-09T12:16:23.266Z,998.68
2019-02-09T12:17:23.187Z,998.77
2019-02-09T12:18:23.183Z,998.81
2019-02-09T12:19:23.163Z,998.85
2019-02-09T12:20:23.161Z,998.85
2019-02-09T12:21:23.145Z,998.88
2019-02-09T12:22:23.153Z,998.82
2019-02-09T12:23:23.171Z,998.82